Arbuckle, West Virginia
Current Conditions -  °F | °C
As of 7:35 PM on Sunday 23 Nov 2014 (Local Time) from K3I2 Reporting Station
Light Rain Light Rain  
Wind Chill: 55°   Ceiling: 4800
Heat Index: 55°   Visibility: 10mi
Dew Point: 50°   Wind: 5mph
Humidity: 82%   Direction: 110°ESE
Pressure: 29.63"   Gusts: NA
Location:  38.7463°N, 81.8897°W
Report Text: K3I2 240035Z AUTO 11004KT 10SM -RA SCT032 SCT040 BKN048 13/10 A2963 RMK AO2
Loading
Personal Weather Stations






























Interactive Weather Map New forecast layout! Learn more

10-Day Weather Forecast

Advertisements
Track Severe Weather on mobile